createdAt,value
2018-09-17T00:00:27.455Z,0.00
2018-09-17T00:01:26.857Z,0.00
2018-09-17T00:02:25.863Z,0.00
2018-09-17T00:03:26.823Z,0.00
2018-09-17T00:04:26.769Z,0.00
2018-09-17T00:05:25.921Z,0.00
2018-09-17T00:06:26.400Z,0.00
2018-09-17T00:07:25.826Z,0.00
2018-09-17T00:08:26.738Z,0.00
2018-09-17T00:09:26.705Z,0.00
2018-09-17T00:10:25.708Z,0.00
2018-09-17T00:11:26.008Z,0.00
2018-09-17T00:12:25.624Z,0.00
2018-09-17T00:13:25.616Z,0.00
2018-09-17T00:14:26.706Z,0.00
2018-09-17T00:15:26.623Z,0.00
2018-09-17T00:16:26.625Z,0.00
2018-09-17T00:17:26.405Z,0.00
2018-09-17T00:18:26.604Z,0.00
2018-09-17T00:19:25.529Z,0.00
2018-09-17T00:20:25.626Z,0.00
2018-09-17T00:21:25.714Z,0.00
2018-09-17T00:22:27.463Z,0.00
2018-09-17T00:23:27.575Z,0.00
2018-09-17T00:24:27.656Z,0.00
2018-09-17T00:25:27.601Z,0.00
2018-09-17T00:27:40.860Z,0.00
2018-09-17T00:28:45.056Z,0.00
2018-09-17T00:29:40.403Z,0.00
2018-09-17T00:30:40.018Z,0.00
2018-09-17T00:31:40.009Z,0.00
2018-09-17T00:32:40.094Z,0.00
2018-09-17T00:33:41.919Z,0.00
2018-09-17T00:34:40.079Z,0.00
2018-09-17T00:35:41.040Z,0.00
2018-09-17T00:36:39.955Z,0.00
2018-09-17T00:37:39.958Z,0.00
2018-09-17T00:38:40.091Z,0.00
2018-09-17T00:39:39.947Z,0.00
2018-09-17T00:42:17.007Z,0.00
2018-09-17T00:42:53.071Z,0.00
2018-09-17T00:43:52.855Z,0.00
2018-09-17T00:44:52.814Z,0.00
2018-09-17T00:45:52.797Z,0.00
2018-09-17T00:46:52.779Z,0.00
2018-09-17T00:47:52.741Z,0.00
2018-09-17T00:48:52.825Z,0.00
2018-09-17T00:49:52.727Z,0.00
2018-09-17T00:50:52.687Z,0.00
2018-09-17T00:51:52.695Z,0.00
2018-09-17T00:52:52.708Z,0.00
2018-09-17T00:53:52.719Z,0.00
2018-09-17T00:54:53.356Z,0.00
2018-09-17T00:56:16.334Z,0.00
2018-09-17T00:56:52.729Z,0.00
2018-09-17T00:57:53.822Z,0.00
2018-09-17T00:58:52.682Z,0.00
2018-09-17T00:59:52.802Z,0.00
2018-09-17T01:00:53.029Z,0.00
2018-09-17T01:01:52.674Z,0.00
2018-09-17T01:02:54.488Z,0.00
2018-09-17T01:03:53.643Z,0.00
2018-09-17T01:04:52.566Z,0.00
2018-09-17T01:05:52.629Z,0.00
2018-09-17T01:06:52.556Z,0.00
2018-09-17T01:07:54.375Z,0.00
2018-09-17T01:08:52.597Z,0.00
2018-09-17T01:09:52.600Z,0.00
2018-09-17T01:10:53.545Z,0.00
2018-09-17T01:11:52.509Z,0.00
2018-09-17T01:12:52.530Z,0.00
2018-09-17T01:13:52.877Z,0.00
2018-09-17T01:14:52.592Z,0.00
2018-09-17T01:15:52.481Z,0.00
2018-09-17T01:16:52.520Z,0.00
2018-09-17T01:17:55.351Z,0.00
2018-09-17T01:18:52.523Z,0.00
2018-09-17T01:19:52.449Z,0.00
2018-09-17T01:20:52.501Z,0.00
2018-09-17T01:21:52.450Z,0.00
2018-09-17T01:22:52.424Z,0.00
2018-09-17T01:23:56.446Z,0.00
2018-09-17T01:24:53.415Z,0.00
2018-09-17T01:25:52.403Z,0.00
2018-09-17T01:26:53.519Z,0.00
2018-09-17T01:27:53.914Z,0.00
2018-09-17T01:28:53.438Z,0.00
2018-09-17T01:29:52.293Z,0.00
2018-09-17T01:30:53.470Z,0.00
2018-09-17T01:31:53.388Z,0.00
2018-09-17T01:32:52.365Z,0.00
2018-09-17T01:33:52.335Z,0.00
2018-09-17T01:34:53.893Z,0.00
2018-09-17T01:35:53.840Z,0.00
2018-09-17T01:36:52.798Z,0.00
2018-09-17T01:37:53.807Z,0.00
2018-09-17T01:38:52.217Z,0.00
2018-09-17T01:39:53.153Z,0.00
2018-09-17T01:40:53.903Z,0.00
2018-09-17T01:41:52.324Z,0.00
2018-09-17T01:42:52.241Z,0.00
2018-09-17T01:43:53.174Z,0.00
2018-09-17T01:44:53.849Z,0.00
2018-09-17T01:45:53.183Z,0.00
2018-09-17T01:46:52.443Z,0.00
2018-09-17T01:47:54.977Z,0.00
2018-09-17T01:48:52.104Z,0.00
2018-09-17T01:49:53.968Z,0.00
2018-09-17T01:50:52.182Z,0.00
2018-09-17T01:51:54.965Z,0.00
2018-09-17T01:52:52.204Z,0.00
2018-09-17T01:53:52.994Z,0.00
2018-09-17T01:54:52.951Z,0.00
2018-09-17T01:56:18.875Z,0.00
2018-09-17T01:56:52.114Z,0.00
2018-09-17T01:57:52.829Z,0.00
2018-09-17T01:58:52.896Z,0.00
2018-09-17T01:59:53.393Z,0.00
2018-09-17T02:00:51.997Z,0.00
2018-09-17T02:01:52.042Z,0.00
2018-09-17T02:02:52.055Z,0.00
2018-09-17T02:03:52.006Z,0.00
2018-09-17T02:04:54.961Z,0.00
2018-09-17T02:05:52.010Z,0.00
2018-09-17T02:06:51.991Z,0.00
2018-09-17T02:07:51.933Z,0.00
2018-09-17T02:08:52.475Z,0.00
2018-09-17T02:09:51.982Z,0.00
2018-09-17T02:11:02.515Z,0.00
2018-09-17T02:11:53.837Z,0.00
2018-09-17T02:12:53.386Z,0.00
2018-09-17T02:13:51.820Z,0.00
2018-09-17T02:14:54.405Z,0.00
2018-09-17T02:15:58.960Z,0.00
2018-09-17T02:16:52.587Z,0.00
2018-09-17T02:17:54.653Z,0.00
2018-09-17T02:18:51.829Z,0.00
2018-09-17T02:19:52.917Z,0.00
2018-09-17T02:20:51.756Z,0.00
2018-09-17T02:21:56.024Z,0.00
2018-09-17T02:22:51.800Z,0.00
2018-09-17T02:23:51.807Z,0.00
2018-09-17T02:24:53.361Z,0.00
2018-09-17T02:25:53.420Z,0.00
2018-09-17T02:26:51.796Z,0.00
2018-09-17T02:27:51.692Z,0.00
2018-09-17T02:28:52.680Z,0.00
2018-09-17T02:29:51.666Z,0.00
2018-09-17T02:30:51.648Z,0.00
2018-09-17T02:31:52.684Z,0.00
2018-09-17T02:32:51.536Z,0.00
2018-09-17T02:33:51.588Z,0.00
2018-09-17T02:34:51.542Z,0.00
2018-09-17T02:35:51.591Z,0.00
2018-09-17T02:36:51.574Z,0.00
2018-09-17T02:37:51.503Z,0.00
2018-09-17T02:38:51.519Z,0.00
2018-09-17T02:39:51.492Z,0.00
2018-09-17T02:41:23.474Z,0.00
2018-09-17T02:41:51.490Z,0.00
2018-09-17T02:42:52.466Z,0.00
2018-09-17T03:01:12.379Z,0.00
2018-09-17T03:02:07.050Z,0.00
2018-09-17T03:03:05.999Z,0.00
2018-09-17T03:04:05.994Z,0.00
2018-09-17T03:05:07.107Z,0.00
2018-09-17T03:06:06.186Z,0.00
2018-09-17T03:07:07.252Z,0.00
2018-09-17T03:08:06.628Z,0.00
2018-09-17T03:09:05.994Z,0.00
2018-09-17T03:10:05.967Z,0.00
2018-09-17T03:11:07.090Z,0.00
2018-09-17T03:12:06.954Z,0.00
2018-09-17T03:13:08.639Z,0.00
2018-09-17T03:14:06.935Z,0.00
2018-09-17T03:15:06.077Z,0.00
2018-09-17T03:16:05.884Z,0.00
2018-09-17T03:17:05.955Z,0.00
2018-09-17T03:18:05.986Z,0.00
2018-09-17T03:19:06.603Z,0.00
2018-09-17T03:20:06.900Z,0.00
2018-09-17T03:21:06.863Z,0.00
2018-09-17T03:22:05.855Z,0.00
2018-09-17T03:23:07.085Z,0.00
2018-09-17T03:24:07.636Z,0.00
2018-09-17T03:25:06.957Z,0.00
2018-09-17T03:26:05.750Z,0.00
2018-09-17T03:27:05.854Z,0.00
2018-09-17T03:28:05.758Z,0.00
2018-09-17T03:29:07.808Z,0.00
2018-09-17T03:30:20.602Z,0.00
2018-09-17T03:31:05.989Z,0.00
2018-09-17T03:32:06.003Z,0.00
2018-09-17T03:33:10.237Z,0.00
2018-09-17T03:34:07.837Z,0.00
2018-09-17T03:35:07.733Z,0.00
2018-09-17T03:36:06.707Z,0.00
2018-09-17T03:37:06.700Z,0.00
2018-09-17T03:38:05.778Z,0.00
2018-09-17T03:39:05.705Z,0.00
2018-09-17T03:40:06.704Z,0.00
2018-09-17T03:41:07.320Z,0.00
2018-09-17T03:42:06.710Z,0.00
2018-09-17T03:43:07.258Z,0.00
2018-09-17T03:44:06.331Z,0.00
2018-09-17T03:45:07.690Z,0.00
2018-09-17T03:46:06.255Z,0.00
2018-09-17T03:47:05.780Z,0.00
2018-09-17T03:48:06.944Z,0.00
2018-09-17T03:49:06.631Z,0.00
2018-09-17T03:50:06.716Z,0.00
2018-09-17T03:51:06.658Z,0.00
2018-09-17T03:52:07.291Z,0.00
2018-09-17T03:53:06.243Z,0.00
2018-09-17T03:54:08.261Z,0.00
2018-09-17T03:55:05.509Z,0.00
2018-09-17T03:56:16.159Z,0.00
2018-09-17T03:57:07.283Z,0.00
2018-09-17T03:58:05.544Z,0.00
2018-09-17T03:59:06.387Z,0.00
2018-09-17T04:00:05.802Z,0.00
2018-09-17T04:01:06.443Z,0.00
2018-09-17T04:02:06.490Z,0.00
2018-09-17T04:03:09.174Z,0.00
2018-09-17T04:04:05.500Z,0.00
2018-09-17T04:05:08.207Z,0.00
2018-09-17T04:06:06.525Z,0.00
2018-09-17T04:07:06.560Z,0.00
2018-09-17T04:08:07.299Z,0.00
2018-09-17T04:09:05.493Z,0.00
2018-09-17T04:10:06.240Z,0.00
2018-09-17T04:11:07.698Z,0.00
2018-09-17T04:12:06.177Z,0.00
2018-09-17T04:13:06.207Z,0.00
2018-09-17T04:14:06.208Z,0.00
2018-09-17T04:15:05.835Z,0.00
2018-09-17T04:16:06.382Z,0.00
2018-09-17T04:17:06.205Z,0.00
2018-09-17T04:18:06.121Z,0.00
2018-09-17T04:19:05.145Z,0.00
2018-09-17T04:20:05.247Z,0.00
2018-09-17T04:21:05.190Z,0.00
2018-09-17T04:22:06.239Z,0.00
2018-09-17T04:23:06.716Z,0.00
2018-09-17T04:24:05.764Z,0.00
2018-09-17T04:25:05.301Z,0.00
2018-09-17T04:26:07.828Z,0.00
2018-09-17T04:27:06.161Z,0.00
2018-09-17T04:28:05.717Z,0.00
2018-09-17T04:29:06.700Z,0.00
2018-09-17T04:30:06.227Z,0.00
2018-09-17T04:31:05.728Z,0.00
2018-09-17T04:32:06.166Z,0.00
2018-09-17T04:33:05.318Z,0.00
2018-09-17T04:34:05.804Z,0.00
2018-09-17T04:35:05.821Z,0.00
2018-09-17T04:36:06.022Z,0.00
2018-09-17T04:37:06.713Z,0.00
2018-09-17T04:38:06.348Z,0.00
2018-09-17T04:39:05.241Z,0.00
2018-09-17T04:40:06.079Z,0.00
2018-09-17T04:41:05.031Z,0.00
2018-09-17T04:42:07.757Z,0.00
2018-09-17T04:43:05.951Z,0.00
2018-09-17T04:44:04.877Z,0.00
2018-09-17T04:45:04.865Z,0.00
2018-09-17T04:46:05.132Z,0.00
2018-09-17T04:47:09.723Z,0.00
2018-09-17T04:48:04.792Z,0.00
2018-09-17T04:49:04.914Z,0.00
2018-09-17T04:50:05.765Z,0.00
2018-09-17T04:51:06.338Z,0.00
2018-09-17T04:52:04.757Z,0.00
2018-09-17T04:53:04.822Z,0.00
2018-09-17T04:54:04.819Z,0.00
2018-09-17T04:55:06.781Z,5.62
2018-09-17T04:56:15.289Z,5.62
2018-09-17T04:57:04.751Z,5.62
2018-09-17T04:58:05.026Z,5.62
2018-09-17T04:59:04.801Z,5.62
2018-09-17T05:00:04.944Z,5.62
2018-09-17T05:01:04.645Z,5.62
2018-09-17T05:02:04.610Z,5.62
2018-09-17T05:03:04.560Z,5.62
2018-09-17T05:04:05.081Z,5.62
2018-09-17T05:05:04.520Z,5.62
2018-09-17T05:06:04.574Z,5.62
2018-09-17T05:07:04.512Z,5.62
2018-09-17T05:08:04.489Z,11.25
2018-09-17T05:09:04.556Z,11.25
2018-09-17T05:10:04.507Z,11.25
2018-09-17T05:11:19.183Z,11.25
2018-09-17T05:12:04.465Z,11.25
2018-09-17T05:13:04.494Z,11.25
2018-09-17T05:14:05.074Z,11.25
2018-09-17T05:15:04.426Z,11.25
2018-09-17T05:16:04.409Z,11.25
2018-09-17T05:17:04.399Z,11.25
2018-09-17T05:18:04.388Z,11.25
2018-09-17T05:19:04.365Z,11.25
2018-09-17T05:20:04.344Z,11.25
2018-09-17T05:21:04.331Z,16.88
2018-09-17T05:22:04.344Z,16.88
2018-09-17T05:23:04.337Z,16.88
2018-09-17T05:24:04.302Z,16.88
2018-09-17T05:25:04.296Z,16.88
2018-09-17T05:26:04.300Z,16.88
2018-09-17T05:27:04.286Z,16.88
2018-09-17T05:28:04.252Z,16.88
2018-09-17T05:29:04.245Z,22.50
2018-09-17T05:30:04.229Z,22.50
2018-09-17T05:31:04.245Z,22.50
2018-09-17T05:32:04.237Z,22.50
2018-09-17T05:33:04.199Z,22.50
2018-09-17T05:34:04.188Z,22.50
2018-09-17T05:35:04.195Z,22.50
2018-09-17T05:36:04.243Z,22.50
2018-09-17T05:37:04.192Z,22.50
2018-09-17T05:38:04.147Z,22.50
2018-09-17T05:39:04.158Z,22.50
2018-09-17T05:40:04.128Z,22.50
2018-09-17T05:41:05.116Z,16.88
2018-09-17T05:42:04.121Z,16.88
2018-09-17T05:43:04.118Z,16.88
2018-09-17T05:44:04.087Z,16.88
2018-09-17T05:45:05.077Z,16.88
2018-09-17T05:46:04.082Z,16.88
2018-09-17T05:47:04.063Z,16.88
2018-09-17T05:48:04.028Z,16.88
2018-09-17T05:49:04.080Z,16.88
2018-09-17T05:50:04.006Z,16.88
2018-09-17T05:51:04.015Z,16.88
2018-09-17T05:52:04.041Z,16.88
2018-09-17T05:53:03.981Z,16.88
2018-09-17T05:54:03.995Z,16.88
2018-09-17T05:55:03.964Z,16.88
2018-09-17T05:56:03.937Z,16.88
2018-09-17T05:57:03.920Z,22.50
2018-09-17T05:58:03.934Z,22.50
2018-09-17T05:59:03.907Z,22.50
2018-09-17T06:00:03.944Z,28.12
2018-09-17T06:01:03.878Z,28.12
2018-09-17T06:02:03.861Z,28.12
2018-09-17T06:03:03.856Z,28.12
2018-09-17T06:04:03.855Z,28.12
2018-09-17T06:05:03.850Z,28.12
2018-09-17T06:06:03.951Z,28.12
2018-09-17T06:07:03.881Z,28.12
2018-09-17T06:08:03.812Z,33.75
2018-09-17T06:09:03.801Z,33.75
2018-09-17T06:10:03.834Z,33.75
2018-09-17T06:11:03.878Z,33.75
2018-09-17T06:12:03.756Z,33.75
2018-09-17T06:13:03.736Z,33.75
2018-09-17T06:14:03.752Z,33.75
2018-09-17T06:15:04.747Z,33.75
2018-09-17T06:16:03.702Z,33.75
2018-09-17T06:17:03.696Z,33.75
2018-09-17T06:18:03.704Z,33.75
2018-09-17T06:19:03.665Z,33.75
2018-09-17T06:20:03.666Z,33.75
2018-09-17T06:21:03.693Z,39.38
2018-09-17T06:22:03.664Z,39.38
2018-09-17T06:23:03.626Z,315.00
2018-09-17T06:24:03.649Z,950.62
2018-09-17T06:25:03.609Z,1456.88
2018-09-17T06:26:03.616Z,1496.25
2018-09-17T06:27:03.594Z,1479.38
2018-09-17T06:28:03.624Z,1473.75
2018-09-17T06:29:03.565Z,1462.50
2018-09-17T06:30:03.554Z,1479.38
2018-09-17T06:31:03.535Z,1541.25
2018-09-17T06:32:03.546Z,1591.88
2018-09-17T06:33:03.513Z,1569.38
2018-09-17T06:34:03.521Z,1546.88
2018-09-17T06:35:03.494Z,1535.62
2018-09-17T06:36:03.489Z,1546.88
2018-09-17T06:37:03.467Z,1541.25
2018-09-17T06:38:03.473Z,1552.50
2018-09-17T06:39:03.445Z,1642.50
2018-09-17T06:40:03.432Z,1704.38
2018-09-17T06:41:03.489Z,1676.25
2018-09-17T06:42:03.414Z,1670.62
2018-09-17T06:43:03.401Z,1693.12
2018-09-17T06:44:03.386Z,1755.00
2018-09-17T06:45:03.414Z,1760.62
2018-09-17T06:46:03.370Z,1653.75
2018-09-17T06:47:03.386Z,1468.12
2018-09-17T06:48:03.337Z,1423.12
2018-09-17T06:49:03.330Z,1563.75
2018-09-17T06:50:03.336Z,1006.88
2018-09-17T06:51:03.315Z,208.12
2018-09-17T06:52:03.322Z,84.38
2018-09-17T06:53:03.291Z,78.75
2018-09-17T06:54:03.306Z,73.12
2018-09-17T06:55:03.277Z,67.50
2018-09-17T06:56:03.252Z,67.50
2018-09-17T06:57:03.248Z,61.88
2018-09-17T06:58:03.267Z,61.88
2018-09-17T06:59:03.223Z,61.88
2018-09-17T07:00:03.217Z,56.25
2018-09-17T07:01:03.220Z,56.25
2018-09-17T07:02:03.186Z,56.25
2018-09-17T07:03:03.175Z,56.25
2018-09-17T07:04:03.177Z,56.25
2018-09-17T07:05:03.158Z,56.25
2018-09-17T07:06:03.162Z,50.62
2018-09-17T07:07:03.161Z,50.62
2018-09-17T07:08:03.121Z,50.62
2018-09-17T07:09:03.129Z,56.25
2018-09-17T07:10:03.102Z,56.25
2018-09-17T07:11:03.090Z,56.25
2018-09-17T07:12:03.082Z,56.25
2018-09-17T07:13:03.068Z,56.25
2018-09-17T07:14:03.111Z,56.25
2018-09-17T07:15:03.048Z,56.25
2018-09-17T07:16:03.043Z,56.25
2018-09-17T07:17:03.029Z,56.25
2018-09-17T07:18:03.033Z,56.25
2018-09-17T07:19:02.994Z,56.25
2018-09-17T07:20:03.006Z,56.25
2018-09-17T07:21:03.008Z,56.25
2018-09-17T07:22:02.959Z,56.25
2018-09-17T07:23:02.948Z,56.25
2018-09-17T07:24:02.944Z,56.25
2018-09-17T07:25:02.927Z,56.25
2018-09-17T07:26:02.937Z,56.25
2018-09-17T07:27:02.915Z,56.25
2018-09-17T07:28:02.894Z,56.25
2018-09-17T07:29:02.893Z,56.25
2018-09-17T07:30:02.876Z,50.62
2018-09-17T07:31:02.877Z,50.62
2018-09-17T07:32:02.853Z,50.62
2018-09-17T07:33:02.839Z,50.62
2018-09-17T07:34:02.823Z,50.62
2018-09-17T07:35:02.818Z,50.62
2018-09-17T07:36:02.843Z,50.62
2018-09-17T07:37:02.786Z,50.62
2018-09-17T07:38:02.778Z,50.62
2018-09-17T07:39:02.769Z,50.62
2018-09-17T07:40:02.757Z,50.62
2018-09-17T07:41:02.749Z,50.62
2018-09-17T07:42:02.801Z,50.62
2018-09-17T07:43:02.748Z,50.62
2018-09-17T07:44:02.705Z,50.62
2018-09-17T07:45:02.702Z,50.62
2018-09-17T07:46:02.687Z,50.62
2018-09-17T07:47:02.685Z,50.62
2018-09-17T07:48:02.679Z,50.62
2018-09-17T07:49:02.657Z,50.62
2018-09-17T07:50:02.670Z,50.62
2018-09-17T07:51:02.657Z,50.62
2018-09-17T07:52:02.648Z,50.62
2018-09-17T07:53:02.691Z,50.62
2018-09-17T07:54:02.603Z,50.62
2018-09-17T07:55:02.592Z,50.62
2018-09-17T07:56:02.601Z,50.62
2018-09-17T07:57:02.587Z,50.62
2018-09-17T07:58:03.172Z,50.62
2018-09-17T07:59:02.536Z,50.62
2018-09-17T08:00:02.539Z,50.62
2018-09-17T08:01:02.551Z,50.62
2018-09-17T08:02:02.534Z,50.62
2018-09-17T08:03:02.514Z,50.62
2018-09-17T08:04:02.488Z,50.62
2018-09-17T08:05:02.507Z,50.62
2018-09-17T08:06:02.465Z,50.62
2018-09-17T08:07:02.468Z,50.62
2018-09-17T08:08:02.457Z,50.62
2018-09-17T08:09:02.454Z,50.62
2018-09-17T08:10:02.420Z,50.62
2018-09-17T08:11:02.464Z,45.00
2018-09-17T08:12:02.405Z,45.00
2018-09-17T08:13:02.400Z,45.00
2018-09-17T08:14:02.381Z,45.00
2018-09-17T08:15:02.361Z,45.00
2018-09-17T08:16:02.349Z,45.00
2018-09-17T08:17:02.446Z,45.00
2018-09-17T08:18:02.355Z,45.00
2018-09-17T08:19:02.327Z,45.00
2018-09-17T08:20:02.351Z,45.00
2018-09-17T08:21:02.303Z,45.00
2018-09-17T08:22:02.295Z,45.00
2018-09-17T08:23:02.289Z,45.00
2018-09-17T08:24:02.262Z,45.00
2018-09-17T08:25:02.272Z,45.00
2018-09-17T08:26:02.266Z,45.00
2018-09-17T08:27:02.233Z,45.00
2018-09-17T08:28:02.254Z,45.00
2018-09-17T08:29:02.237Z,45.00
2018-09-17T08:30:02.205Z,50.62
2018-09-17T08:31:02.220Z,50.62
2018-09-17T08:32:02.180Z,50.62
2018-09-17T08:33:02.170Z,50.62
2018-09-17T08:34:02.150Z,50.62
2018-09-17T08:35:02.177Z,50.62
2018-09-17T08:36:02.169Z,50.62
2018-09-17T08:37:02.118Z,50.62
2018-09-17T08:38:02.159Z,50.62
2018-09-17T08:39:02.126Z,50.62
2018-09-17T08:40:02.137Z,50.62
2018-09-17T08:41:02.075Z,50.62
2018-09-17T08:42:02.102Z,50.62
2018-09-17T08:43:02.098Z,50.62
2018-09-17T08:44:02.050Z,50.62
2018-09-17T08:45:02.059Z,50.62
2018-09-17T08:46:02.013Z,50.62
2018-09-17T08:47:02.029Z,50.62
2018-09-17T08:48:02.006Z,50.62
2018-09-17T08:49:02.017Z,50.62
2018-09-17T08:50:01.975Z,50.62
2018-09-17T08:51:01.972Z,50.62
2018-09-17T08:52:01.977Z,50.62
2018-09-17T08:53:02.014Z,50.62
2018-09-17T08:54:01.941Z,50.62
2018-09-17T08:55:01.913Z,50.62
2018-09-17T08:56:01.966Z,50.62
2018-09-17T08:57:01.909Z,50.62
2018-09-17T08:58:01.976Z,50.62
2018-09-17T08:59:01.869Z,50.62
2018-09-17T09:00:01.867Z,50.62
2018-09-17T09:01:01.864Z,50.62
2018-09-17T09:02:01.837Z,50.62
2018-09-17T09:03:01.846Z,50.62
2018-09-17T09:04:01.884Z,50.62
2018-09-17T09:05:01.858Z,50.62
2018-09-17T09:06:01.828Z,50.62
2018-09-17T09:07:01.809Z,50.62
2018-09-17T09:08:01.853Z,50.62
2018-09-17T09:09:01.761Z,50.62
2018-09-17T09:10:01.776Z,50.62
2018-09-17T09:11:01.737Z,50.62
2018-09-17T09:12:01.778Z,50.62
2018-09-17T09:13:01.719Z,50.62
2018-09-17T09:14:01.713Z,50.62
2018-09-17T09:15:01.701Z,50.62
2018-09-17T09:16:01.686Z,50.62
2018-09-17T09:17:01.700Z,50.62
2018-09-17T09:18:01.679Z,50.62
2018-09-17T09:19:01.653Z,50.62
2018-09-17T09:20:01.627Z,50.62
2018-09-17T09:21:01.646Z,56.25
2018-09-17T09:22:01.609Z,56.25
2018-09-17T09:23:01.678Z,56.25
2018-09-17T09:24:01.636Z,56.25
2018-09-17T09:25:01.578Z,56.25
2018-09-17T09:26:01.603Z,56.25
2018-09-17T09:27:01.564Z,56.25
2018-09-17T09:28:01.542Z,56.25
2018-09-17T09:29:01.541Z,56.25
2018-09-17T09:30:01.542Z,56.25
2018-09-17T09:31:01.517Z,56.25
2018-09-17T09:32:01.510Z,56.25
2018-09-17T09:33:01.492Z,56.25
2018-09-17T09:34:01.486Z,56.25
2018-09-17T09:35:01.464Z,56.25
2018-09-17T09:36:01.473Z,56.25
2018-09-17T09:37:01.444Z,56.25
2018-09-17T09:38:01.481Z,56.25
2018-09-17T09:39:01.442Z,56.25
2018-09-17T09:40:01.408Z,56.25
2018-09-17T09:41:01.416Z,56.25
2018-09-17T09:42:01.396Z,56.25
2018-09-17T09:43:02.375Z,56.25
2018-09-17T09:44:01.399Z,56.25
2018-09-17T09:45:01.353Z,56.25
2018-09-17T09:46:01.351Z,56.25
2018-09-17T09:47:01.358Z,56.25
2018-09-17T09:48:01.355Z,56.25
2018-09-17T09:49:01.318Z,56.25
2018-09-17T09:50:01.326Z,56.25
2018-09-17T09:51:01.283Z,56.25
2018-09-17T09:52:01.272Z,61.88
2018-09-17T09:53:01.329Z,61.88
2018-09-17T09:54:01.268Z,61.88
2018-09-17T09:55:01.238Z,61.88
2018-09-17T09:56:01.230Z,61.88
2018-09-17T09:57:01.271Z,61.88
2018-09-17T09:58:01.209Z,61.88
2018-09-17T09:59:01.232Z,61.88
2018-09-17T10:00:01.209Z,61.88
2018-09-17T10:01:01.174Z,61.88
2018-09-17T10:02:01.157Z,61.88
2018-09-17T10:03:01.177Z,61.88
2018-09-17T10:04:01.142Z,61.88
2018-09-17T10:05:01.183Z,61.88
2018-09-17T10:06:01.196Z,61.88
2018-09-17T10:07:01.111Z,61.88
2018-09-17T10:08:01.099Z,61.88
2018-09-17T10:09:01.084Z,61.88
2018-09-17T10:10:01.081Z,61.88
2018-09-17T10:11:01.106Z,61.88
2018-09-17T10:12:01.092Z,61.88
2018-09-17T10:13:01.029Z,61.88
2018-09-17T10:14:01.060Z,61.88
2018-09-17T10:15:01.010Z,61.88
2018-09-17T10:16:00.995Z,61.88
2018-09-17T10:17:01.089Z,61.88
2018-09-17T10:18:00.982Z,61.88
2018-09-17T10:19:00.968Z,61.88
2018-09-17T10:20:01.653Z,61.88
2018-09-17T10:21:00.942Z,61.88
2018-09-17T10:22:00.953Z,67.50
2018-09-17T10:23:00.962Z,67.50
2018-09-17T10:24:00.994Z,67.50
2018-09-17T10:25:00.965Z,67.50
2018-09-17T10:26:00.888Z,67.50
2018-09-17T10:27:19.152Z,67.50
2018-09-17T10:28:00.870Z,67.50
2018-09-17T10:29:00.852Z,67.50
2018-09-17T10:30:00.985Z,67.50
2018-09-17T10:31:00.834Z,73.12
2018-09-17T10:32:00.873Z,67.50
2018-09-17T10:33:00.873Z,67.50
2018-09-17T10:34:00.802Z,73.12
2018-09-17T10:35:00.805Z,67.50
2018-09-17T10:36:00.804Z,73.12
2018-09-17T10:37:00.765Z,67.50
2018-09-17T10:38:00.754Z,67.50
2018-09-17T10:39:00.771Z,73.12
2018-09-17T10:40:00.735Z,73.12
2018-09-17T10:41:00.749Z,67.50
2018-09-17T10:42:00.757Z,73.12
2018-09-17T10:43:00.760Z,73.12
2018-09-17T10:44:00.687Z,73.12
2018-09-17T10:45:00.672Z,73.12
2018-09-17T10:46:00.671Z,73.12
2018-09-17T10:47:00.719Z,78.75
2018-09-17T10:48:00.678Z,78.75
2018-09-17T10:49:00.629Z,78.75
2018-09-17T10:50:00.618Z,78.75
2018-09-17T10:51:00.645Z,84.38
2018-09-17T10:52:00.659Z,84.38
2018-09-17T10:53:00.598Z,84.38
2018-09-17T10:54:00.599Z,90.00
2018-09-17T10:55:00.562Z,90.00
2018-09-17T10:56:00.595Z,90.00
2018-09-17T10:57:00.571Z,95.62
2018-09-17T10:58:00.547Z,90.00
2018-09-17T10:59:00.522Z,95.62
2018-09-17T11:00:00.524Z,95.62
2018-09-17T11:01:00.500Z,90.00
2018-09-17T11:02:00.514Z,95.62
2018-09-17T11:03:00.549Z,95.62
2018-09-17T11:04:00.469Z,95.62
2018-09-17T11:05:00.510Z,90.00
2018-09-17T11:06:00.485Z,90.00
2018-09-17T11:07:00.479Z,84.38
2018-09-17T11:08:00.430Z,84.38
2018-09-17T11:09:00.459Z,84.38
2018-09-17T11:10:00.401Z,84.38
2018-09-17T11:11:00.399Z,84.38
2018-09-17T11:12:00.461Z,78.75
2018-09-17T11:13:00.373Z,78.75
2018-09-17T11:14:00.390Z,84.38
2018-09-17T11:15:00.349Z,84.38
2018-09-17T11:16:00.349Z,84.38
2018-09-17T11:17:00.335Z,84.38
2018-09-17T11:18:00.344Z,84.38
2018-09-17T11:19:00.340Z,84.38
2018-09-17T11:20:00.294Z,84.38
2018-09-17T11:21:00.302Z,84.38
2018-09-17T11:22:00.304Z,90.00
2018-09-17T11:23:00.283Z,84.38
2018-09-17T11:24:00.262Z,90.00
2018-09-17T11:25:00.279Z,90.00
2018-09-17T11:26:00.232Z,90.00
2018-09-17T11:27:00.260Z,90.00
2018-09-17T11:28:00.215Z,95.62
2018-09-17T11:29:00.206Z,95.62
2018-09-17T11:30:00.223Z,95.62
2018-09-17T11:31:00.226Z,95.62
2018-09-17T11:32:01.168Z,95.62
2018-09-17T11:33:00.169Z,95.62
2018-09-17T11:34:00.159Z,95.62
2018-09-17T11:35:00.163Z,95.62
2018-09-17T11:36:00.125Z,95.62
2018-09-17T11:37:00.113Z,95.62
2018-09-17T11:38:00.130Z,95.62
2018-09-17T11:39:00.095Z,95.62
2018-09-17T11:40:00.077Z,95.62
2018-09-17T11:41:00.084Z,95.62
2018-09-17T11:42:00.054Z,90.00
2018-09-17T11:43:00.073Z,90.00
2018-09-17T11:44:00.067Z,84.38
2018-09-17T11:45:00.050Z,84.38
2018-09-17T11:46:00.021Z,84.38
2018-09-17T11:47:00.081Z,84.38
2018-09-17T11:47:59.988Z,90.00
2018-09-17T11:48:59.974Z,90.00
2018-09-17T11:49:59.970Z,95.62
2018-09-17T11:50:59.956Z,101.25
2018-09-17T11:51:59.990Z,101.25
2018-09-17T11:52:59.977Z,101.25
2018-09-17T11:54:00.051Z,101.25
2018-09-17T11:54:59.917Z,106.88
2018-09-17T11:55:59.914Z,106.88
2018-09-17T11:56:59.923Z,106.88
2018-09-17T11:57:59.883Z,101.25
2018-09-17T11:58:59.889Z,95.62
2018-09-17T11:59:59.890Z,95.62
2018-09-17T12:00:59.852Z,90.00
2018-09-17T12:01:59.849Z,90.00
2018-09-17T12:02:59.830Z,84.38
2018-09-17T12:03:59.816Z,84.38
2018-09-17T12:04:59.870Z,84.38
2018-09-17T12:05:59.796Z,90.00
2018-09-17T12:06:59.782Z,90.00
2018-09-17T12:07:59.787Z,90.00
2018-09-17T12:08:59.763Z,84.38
2018-09-17T12:09:59.780Z,90.00
2018-09-17T12:10:59.761Z,90.00
2018-09-17T12:12:00.756Z,90.00
2018-09-17T12:12:59.740Z,84.38
2018-09-17T12:13:59.707Z,73.12
2018-09-17T12:14:59.716Z,73.12
2018-09-17T12:15:59.683Z,73.12
2018-09-17T12:16:59.668Z,78.75
2018-09-17T12:17:59.669Z,84.38
2018-09-17T12:18:59.657Z,90.00
2018-09-17T12:19:59.666Z,90.00
2018-09-17T12:20:59.630Z,84.38
2018-09-17T12:21:59.642Z,84.38
2018-09-17T12:22:59.607Z,73.12
2018-09-17T12:23:59.623Z,73.12
2018-09-17T12:24:59.633Z,67.50
2018-09-17T12:25:59.571Z,67.50
2018-09-17T12:26:59.557Z,73.12
2018-09-17T12:27:59.545Z,73.12
2018-09-17T12:28:59.536Z,73.12
2018-09-17T12:29:59.551Z,78.75
2018-09-17T12:30:59.545Z,73.12
2018-09-17T12:31:59.503Z,78.75
2018-09-17T12:32:59.525Z,84.38
2018-09-17T12:33:59.597Z,95.62
2018-09-17T12:34:59.469Z,101.25
2018-09-17T12:35:59.453Z,106.88
2018-09-17T12:36:59.587Z,112.50
2018-09-17T12:37:59.427Z,112.50
2018-09-17T12:38:59.424Z,112.50
2018-09-17T12:39:59.413Z,112.50
2018-09-17T12:40:59.396Z,118.12
2018-09-17T12:41:59.413Z,118.12
2018-09-17T12:42:59.397Z,123.75
2018-09-17T12:43:59.365Z,123.75
2018-09-17T12:44:59.361Z,118.12
2018-09-17T12:45:59.384Z,118.12
2018-09-17T12:46:59.356Z,123.75
2018-09-17T12:47:59.324Z,123.75
2018-09-17T12:48:59.332Z,118.12
2018-09-17T12:49:59.299Z,118.12
2018-09-17T12:50:59.292Z,123.75
2018-09-17T12:52:00.159Z,123.75
2018-09-17T12:52:59.268Z,123.75
2018-09-17T12:53:59.253Z,129.38
2018-09-17T12:54:59.262Z,129.38
2018-09-17T12:55:59.234Z,123.75
2018-09-17T12:56:59.242Z,129.38
2018-09-17T12:57:59.212Z,123.75
2018-09-17T12:58:59.195Z,129.38
2018-09-17T12:59:59.191Z,129.38
2018-09-17T13:00:59.194Z,56.25
2018-09-17T13:01:59.203Z,123.75
2018-09-17T13:02:59.146Z,129.38
2018-09-17T13:03:59.165Z,129.38
2018-09-17T13:04:59.131Z,129.38
2018-09-17T13:05:59.113Z,135.00
2018-09-17T13:06:59.144Z,135.00
2018-09-17T13:07:59.091Z,135.00
2018-09-17T13:08:59.081Z,129.38
2018-09-17T13:09:59.075Z,129.38
2018-09-17T13:10:59.089Z,129.38
2018-09-17T13:11:59.072Z,129.38
2018-09-17T13:12:59.059Z,129.38
2018-09-17T13:13:59.020Z,129.38
2018-09-17T13:14:59.234Z,123.75
2018-09-17T13:15:59.005Z,118.12
2018-09-17T13:16:58.994Z,123.75
2018-09-17T13:17:58.979Z,129.38